createdAt,value
2023-03-29T00:02:33.532Z,98451.00
2023-03-29T00:05:10.256Z,98454.00
2023-03-29T00:07:46.091Z,98450.00
2023-03-29T00:10:23.997Z,98449.00
2023-03-29T00:12:59.444Z,98445.00
2023-03-29T00:15:34.555Z,98439.00
2023-03-29T00:18:09.668Z,98437.00
2023-03-29T00:20:44.686Z,98426.00
2023-03-29T00:23:19.710Z,98424.00
2023-03-29T00:25:55.388Z,98420.00
2023-03-29T00:28:31.370Z,98419.00
2023-03-29T00:31:10.393Z,98423.00
2023-03-29T00:33:45.926Z,98421.00
2023-03-29T00:36:22.155Z,98424.00
2023-03-29T00:38:57.157Z,98417.00
2023-03-29T00:41:32.692Z,98424.00
2023-03-29T00:44:52.263Z,98427.00
2023-03-29T00:47:42.266Z,98414.00
2023-03-29T00:50:53.433Z,98411.00
2023-03-29T00:53:42.278Z,98401.00
2023-03-29T00:56:21.626Z,98402.00
2023-03-29T00:59:14.647Z,98406.00
2023-03-29T01:02:02.054Z,98392.00
2023-03-29T01:04:58.057Z,98390.00
2023-03-29T01:07:42.009Z,98383.00
2023-03-29T01:10:45.022Z,98375.00
2023-03-29T01:13:30.930Z,98369.00
2023-03-29T01:16:09.108Z,98375.00
2023-03-29T01:18:44.176Z,98355.00
2023-03-29T01:21:57.508Z,98356.00
2023-03-29T01:25:32.988Z,98363.00
2023-03-29T01:28:14.511Z,98349.00
2023-03-29T01:31:17.095Z,98349.00
2023-03-29T01:34:02.480Z,98342.00
2023-03-29T01:36:49.384Z,98340.00
2023-03-29T01:39:24.802Z,98342.00
2023-03-29T01:42:29.893Z,98335.00
2023-03-29T01:45:51.653Z,98328.00
2023-03-29T01:48:44.457Z,98320.00
2023-03-29T01:51:36.767Z,98314.00
2023-03-29T01:54:20.735Z,98301.00
2023-03-29T01:56:57.449Z,98301.00
2023-03-29T01:59:36.346Z,98290.00
2023-03-29T02:02:16.038Z,98282.00
2023-03-29T02:04:54.480Z,98278.00
2023-03-29T02:07:32.301Z,98282.00
2023-03-29T02:10:09.599Z,98266.00
2023-03-29T02:12:44.601Z,98279.00
2023-03-29T02:15:21.023Z,98279.00
2023-03-29T02:17:56.929Z,98273.00
2023-03-29T02:20:43.261Z,98288.00
2023-03-29T02:23:45.358Z,98279.00
2023-03-29T02:26:22.408Z,98271.00
2023-03-29T02:28:57.482Z,98279.00
2023-03-29T02:31:47.697Z,98283.00
2023-03-29T02:34:37.595Z,98270.00
2023-03-29T02:37:18.905Z,98279.00
2023-03-29T02:39:53.952Z,98274.00
2023-03-29T02:42:30.412Z,98273.00
2023-03-29T02:45:07.845Z,98268.00
2023-03-29T02:47:54.696Z,98251.00
2023-03-29T02:50:38.558Z,98238.00
2023-03-29T02:53:19.913Z,98236.00
2023-03-29T02:55:56.539Z,98223.00
2023-03-29T02:58:31.733Z,98224.00
2023-03-29T03:01:09.661Z,98214.00
2023-03-29T03:03:45.196Z,98217.00
2023-03-29T03:06:21.360Z,98203.00
2023-03-29T03:08:56.708Z,98203.00
2023-03-29T03:11:33.847Z,98197.00
2023-03-29T03:14:09.047Z,98210.00
2023-03-29T03:16:44.138Z,98209.00
2023-03-29T03:19:19.815Z,98207.00
2023-03-29T03:21:54.761Z,98225.00
2023-03-29T03:24:29.772Z,98216.00
2023-03-29T03:27:06.271Z,98218.00
2023-03-29T03:29:41.490Z,98218.00
2023-03-29T03:32:25.325Z,98206.00
2023-03-29T03:35:19.212Z,98209.00
2023-03-29T03:38:01.702Z,98224.00
2023-03-29T03:40:36.646Z,98205.00
2023-03-29T03:43:11.718Z,98203.00
2023-03-29T03:45:47.187Z,98200.00
2023-03-29T03:48:28.826Z,98207.00
2023-03-29T03:51:16.955Z,98196.00
2023-03-29T03:53:52.118Z,98204.00
2023-03-29T03:56:56.642Z,98202.00
2023-03-29T03:59:37.000Z,98196.00
2023-03-29T04:02:16.692Z,98198.00
2023-03-29T04:04:54.818Z,98210.00
2023-03-29T04:07:34.402Z,98211.00
2023-03-29T04:10:28.648Z,98217.00
2023-03-29T04:13:14.751Z,98223.00
2023-03-29T04:16:10.119Z,98216.00
2023-03-29T04:18:45.750Z,98217.00
2023-03-29T04:21:21.364Z,98217.00
2023-03-29T04:23:56.700Z,98218.00
2023-03-29T04:26:31.901Z,98215.00
2023-03-29T04:29:16.807Z,98216.00
2023-03-29T04:31:57.145Z,98211.00
2023-03-29T04:34:50.644Z,98217.00
2023-03-29T04:37:25.716Z,98216.00
2023-03-29T04:40:04.484Z,98211.00
2023-03-29T04:42:51.632Z,98213.00
2023-03-29T04:45:27.619Z,98214.00
2023-03-29T04:48:22.482Z,98211.00
2023-03-29T04:50:57.435Z,98212.00
2023-03-29T04:53:32.586Z,98216.00
2023-03-29T04:56:08.397Z,98208.00
2023-03-29T04:59:03.463Z,98214.00
2023-03-29T05:01:39.523Z,98208.00
2023-03-29T05:04:14.664Z,98212.00
2023-03-29T05:07:04.486Z,98217.00
2023-03-29T05:09:40.725Z,98224.00
2023-03-29T05:12:17.238Z,98213.00
2023-03-29T05:14:59.895Z,98219.00
2023-03-29T05:17:36.848Z,98213.00
2023-03-29T05:20:17.568Z,98215.00
2023-03-29T05:22:55.054Z,98216.00
2023-03-29T05:25:55.913Z,98224.00
2023-03-29T05:28:30.938Z,98215.00
2023-03-29T05:31:06.656Z,98215.00
2023-03-29T05:33:45.026Z,98221.00
2023-03-29T05:36:20.978Z,98212.00
2023-03-29T05:38:59.898Z,98212.00
2023-03-29T05:41:36.717Z,98212.00
2023-03-29T05:44:32.097Z,98202.00
2023-03-29T05:47:17.283Z,98201.00
2023-03-29T05:49:53.278Z,98206.00
2023-03-29T05:52:30.071Z,98213.00
2023-03-29T05:55:05.727Z,98222.00
2023-03-29T05:57:41.399Z,98220.00
2023-03-29T06:00:23.623Z,98213.00
2023-03-29T06:03:14.050Z,98226.00
2023-03-29T06:06:03.798Z,98221.00
2023-03-29T06:08:39.830Z,98224.00
2023-03-29T06:11:26.343Z,98219.00
2023-03-29T06:14:30.339Z,98217.00
2023-03-29T06:17:23.936Z,98231.00
2023-03-29T06:19:59.312Z,98227.00
2023-03-29T06:22:37.554Z,98226.00
2023-03-29T06:25:14.144Z,98225.00
2023-03-29T06:27:50.032Z,98224.00
2023-03-29T06:30:26.542Z,98228.00
2023-03-29T06:33:07.039Z,98229.00
2023-03-29T06:35:51.375Z,98241.00
2023-03-29T06:38:32.515Z,98230.00
2023-03-29T06:41:31.067Z,98237.00
2023-03-29T06:44:15.289Z,98237.00
2023-03-29T06:47:02.034Z,98241.00
2023-03-29T06:49:37.522Z,98232.00
2023-03-29T06:52:32.401Z,98237.00
2023-03-29T06:55:08.147Z,98247.00
2023-03-29T06:57:45.133Z,98239.00
2023-03-29T07:00:28.126Z,98251.00
2023-03-29T07:03:20.627Z,98249.00
2023-03-29T07:06:04.330Z,98247.00
2023-03-29T07:08:45.000Z,98257.00
2023-03-29T07:11:39.254Z,98259.00
2023-03-29T07:14:31.430Z,98267.00
2023-03-29T07:17:06.913Z,98278.00
2023-03-29T07:19:45.740Z,98271.00
2023-03-29T07:22:53.696Z,98280.00
2023-03-29T07:25:30.015Z,98281.00
2023-03-29T07:28:07.476Z,98280.00
2023-03-29T07:30:42.951Z,98281.00
2023-03-29T07:33:24.326Z,98267.00
2023-03-29T07:36:11.151Z,98271.00
2023-03-29T07:38:46.155Z,98278.00
2023-03-29T07:41:26.438Z,98273.00
2023-03-29T07:44:10.451Z,98279.00
2023-03-29T07:46:47.508Z,98287.00
2023-03-29T07:49:23.010Z,98292.00
2023-03-29T07:51:57.944Z,98296.00
2023-03-29T07:54:33.213Z,98299.00
2023-03-29T07:57:24.976Z,98291.00
2023-03-29T08:00:16.090Z,98296.00
2023-03-29T08:02:59.415Z,98292.00
2023-03-29T08:05:41.415Z,98301.00
2023-03-29T08:08:19.440Z,98298.00
2023-03-29T08:11:08.798Z,98290.00
2023-03-29T08:14:01.436Z,98285.00
2023-03-29T08:16:56.761Z,98288.00
2023-03-29T08:19:32.173Z,98283.00
2023-03-29T08:22:15.633Z,98291.00
2023-03-29T08:25:12.156Z,98278.00
2023-03-29T08:27:52.054Z,98275.00
2023-03-29T08:30:38.185Z,98283.00
2023-03-29T08:33:13.792Z,98282.00
2023-03-29T08:35:51.635Z,98290.00
2023-03-29T08:38:30.999Z,98282.00
2023-03-29T08:41:43.699Z,98281.00
2023-03-29T08:44:30.981Z,98291.00
2023-03-29T08:48:00.964Z,98274.00
2023-03-29T08:50:47.891Z,98283.00
2023-03-29T08:53:36.973Z,98284.00
2023-03-29T08:56:31.465Z,98286.00
2023-03-29T08:59:20.787Z,98271.00
2023-03-29T09:01:59.398Z,98269.00
2023-03-29T09:04:36.567Z,98266.00
2023-03-29T09:07:26.695Z,98270.00
2023-03-29T09:10:03.568Z,98270.00
2023-03-29T09:13:01.616Z,98269.00
2023-03-29T09:16:17.171Z,98270.00
2023-03-29T09:19:25.756Z,98271.00
2023-03-29T09:22:24.336Z,98267.00
2023-03-29T09:25:53.371Z,98265.00
2023-03-29T09:28:33.082Z,98262.00
2023-03-29T09:31:26.686Z,98258.00
2023-03-29T09:34:29.023Z,98259.00
2023-03-29T09:37:21.849Z,98255.00
2023-03-29T09:39:58.115Z,98255.00
2023-03-29T09:42:49.772Z,98254.00
2023-03-29T09:45:24.895Z,98243.00
2023-03-29T09:48:13.527Z,98238.00
2023-03-29T09:50:51.666Z,98233.00
2023-03-29T09:53:27.639Z,98229.00
2023-03-29T09:56:15.945Z,98230.00
2023-03-29T09:58:59.564Z,98233.00
2023-03-29T10:01:41.727Z,98236.00
2023-03-29T10:04:18.711Z,98227.00
2023-03-29T10:07:00.445Z,98237.00
2023-03-29T10:09:36.029Z,98243.00
2023-03-29T10:12:23.433Z,98230.00
2023-03-29T10:15:00.792Z,98231.00
2023-03-29T10:17:41.115Z,98226.00
2023-03-29T10:20:19.453Z,98228.00
2023-03-29T10:22:59.309Z,98223.00
2023-03-29T10:25:42.591Z,98229.00
2023-03-29T10:28:21.141Z,98223.00
2023-03-29T10:30:59.812Z,98225.00
2023-03-29T10:33:36.668Z,98222.00
2023-03-29T10:36:13.890Z,98218.00
2023-03-29T10:38:50.910Z,98206.00
2023-03-29T10:41:30.574Z,98219.00
2023-03-29T10:44:06.017Z,98218.00
2023-03-29T10:46:44.116Z,98204.00
2023-03-29T10:49:22.386Z,98205.00
2023-03-29T10:51:57.644Z,98190.00
2023-03-29T10:54:32.810Z,98192.00
2023-03-29T10:57:16.627Z,98204.00
2023-03-29T11:00:06.980Z,98195.00
2023-03-29T11:03:22.785Z,98208.00
2023-03-29T11:06:07.645Z,98199.00
2023-03-29T11:08:52.798Z,98194.00
2023-03-29T11:12:08.245Z,98183.00
2023-03-29T11:15:28.268Z,98183.00
2023-03-29T11:18:23.973Z,98183.00
2023-03-29T11:21:29.852Z,98172.00
2023-03-29T11:24:34.627Z,98169.00
2023-03-29T11:27:33.385Z,98168.00
2023-03-29T11:30:30.554Z,98168.00
2023-03-29T11:33:36.397Z,98156.00
2023-03-29T11:36:50.348Z,98162.00
2023-03-29T11:40:10.908Z,98158.00
2023-03-29T11:42:50.207Z,98158.00
2023-03-29T11:45:41.188Z,98158.00
2023-03-29T11:48:23.967Z,98158.00
2023-03-29T11:51:11.278Z,98151.00
2023-03-29T11:54:04.072Z,98156.00
2023-03-29T11:56:59.693Z,98149.00
2023-03-29T11:59:43.264Z,98148.00
2023-03-29T12:02:37.693Z,98148.00
2023-03-29T12:05:32.946Z,98145.00
2023-03-29T12:08:25.523Z,98139.00
2023-03-29T12:11:07.092Z,98134.00
2023-03-29T12:13:49.583Z,98129.00
2023-03-29T12:16:37.619Z,98142.00
2023-03-29T12:19:43.635Z,98135.00
2023-03-29T12:22:19.009Z,98136.00
2023-03-29T12:24:57.543Z,98133.00
2023-03-29T12:27:55.216Z,98137.00
2023-03-29T12:30:46.917Z,98123.00
2023-03-29T12:33:30.247Z,98118.00
2023-03-29T12:37:01.858Z,98112.00
2023-03-29T12:40:22.535Z,98121.00
2023-03-29T12:43:28.936Z,98119.00
2023-03-29T12:46:33.541Z,98144.00
2023-03-29T12:49:20.997Z,98136.00
2023-03-29T12:51:59.632Z,98141.00
2023-03-29T12:54:34.567Z,98142.00
2023-03-29T12:57:26.390Z,98131.00
2023-03-29T13:00:25.149Z,98132.00
2023-03-29T13:03:27.155Z,98127.00
2023-03-29T13:06:05.541Z,98142.00
2023-03-29T13:08:43.941Z,98135.00
2023-03-29T13:11:34.634Z,98150.00
2023-03-29T13:14:17.351Z,98155.00
2023-03-29T13:16:53.610Z,98151.00
2023-03-29T13:20:28.936Z,98158.00
2023-03-29T13:23:44.512Z,98158.00
2023-03-29T13:26:47.186Z,98148.00
2023-03-29T13:30:02.007Z,98159.00
2023-03-29T13:33:21.729Z,98149.00
2023-03-29T13:36:39.700Z,98153.00
2023-03-29T13:39:24.318Z,98141.00
2023-03-29T13:42:34.595Z,98144.00
2023-03-29T13:45:36.422Z,98140.00
2023-03-29T13:48:27.148Z,98156.00
2023-03-29T13:51:08.366Z,98155.00
2023-03-29T13:53:53.981Z,98155.00
2023-03-29T13:56:37.159Z,98150.00
2023-03-29T13:59:36.942Z,98154.00
2023-03-29T14:02:35.218Z,98157.00
2023-03-29T14:05:17.159Z,98181.00
2023-03-29T14:07:54.394Z,98171.00
2023-03-29T14:10:39.222Z,98169.00
2023-03-29T14:13:18.211Z,98171.00
2023-03-29T14:16:09.016Z,98175.00
2023-03-29T14:18:51.097Z,98175.00
2023-03-29T14:21:26.169Z,98156.00
2023-03-29T14:24:02.328Z,98160.00
2023-03-29T14:26:38.384Z,98159.00
2023-03-29T14:29:13.747Z,98143.00
2023-03-29T14:31:49.861Z,98138.00
2023-03-29T14:34:24.769Z,98127.00
2023-03-29T14:36:59.800Z,98136.00
2023-03-29T14:39:35.628Z,98129.00
2023-03-29T14:42:21.306Z,98124.00
2023-03-29T14:45:05.119Z,98119.00
2023-03-29T14:47:40.817Z,98116.00
2023-03-29T14:50:29.596Z,98116.00
2023-03-29T14:53:06.126Z,98115.00
2023-03-29T14:55:41.712Z,98114.00
2023-03-29T14:58:22.481Z,98102.00
2023-03-29T15:00:57.888Z,98104.00
2023-03-29T15:03:50.184Z,98093.00
2023-03-29T15:06:26.392Z,98090.00
2023-03-29T15:09:06.629Z,98085.00
2023-03-29T15:11:55.582Z,98066.00
2023-03-29T15:14:37.921Z,98077.00
2023-03-29T15:17:50.248Z,98070.00
2023-03-29T15:20:29.920Z,98063.00
2023-03-29T15:23:16.683Z,98065.00
2023-03-29T15:25:58.897Z,98068.00
2023-03-29T15:28:36.012Z,98061.00
2023-03-29T15:31:15.079Z,98054.00
2023-03-29T15:33:50.045Z,98045.00
2023-03-29T15:36:24.974Z,98045.00
2023-03-29T15:39:00.909Z,98049.00
2023-03-29T15:41:35.759Z,98041.00
2023-03-29T15:44:11.458Z,98036.00
2023-03-29T15:46:46.650Z,98032.00
2023-03-29T15:49:21.829Z,98026.00
2023-03-29T15:51:56.696Z,98022.00
2023-03-29T15:54:32.173Z,98029.00
2023-03-29T15:57:12.844Z,98012.00
2023-03-29T15:59:48.057Z,98013.00
2023-03-29T16:02:24.761Z,98013.00
2023-03-29T16:05:01.620Z,98022.00
2023-03-29T16:07:36.759Z,98028.00
2023-03-29T16:10:11.689Z,98032.00
2023-03-29T16:12:46.624Z,98032.00
2023-03-29T16:15:23.952Z,98035.00
2023-03-29T16:17:59.341Z,98027.00
2023-03-29T16:20:34.362Z,98025.00
2023-03-29T16:23:09.648Z,98024.00
2023-03-29T16:25:44.595Z,98016.00
2023-03-29T16:28:19.465Z,98021.00
2023-03-29T16:30:54.308Z,98014.00
2023-03-29T16:33:29.316Z,98012.00
2023-03-29T16:36:05.038Z,98012.00
2023-03-29T16:38:40.566Z,98007.00
2023-03-29T16:41:17.140Z,98014.00
2023-03-29T16:43:52.002Z,98000.00
2023-03-29T16:46:27.861Z,98006.00
2023-03-29T16:49:03.098Z,98009.00
2023-03-29T16:51:38.005Z,98001.00
2023-03-29T16:54:13.985Z,98001.00
2023-03-29T16:56:48.999Z,97999.00
2023-03-29T16:59:24.003Z,97998.00
2023-03-29T17:01:58.926Z,97992.00
2023-03-29T17:04:33.839Z,97986.00
2023-03-29T17:07:08.779Z,97996.00
2023-03-29T17:09:45.734Z,97996.00
2023-03-29T17:12:21.199Z,97989.00
2023-03-29T17:14:57.010Z,97995.00
2023-03-29T17:17:32.090Z,98014.00
2023-03-29T17:20:11.811Z,98013.00
2023-03-29T17:22:49.006Z,98007.00
2023-03-29T17:25:23.997Z,98003.00
2023-03-29T17:27:58.855Z,98002.00
2023-03-29T17:30:35.088Z,97997.00
2023-03-29T17:33:11.218Z,97993.00
2023-03-29T17:35:46.269Z,97985.00
2023-03-29T17:38:22.471Z,97982.00
2023-03-29T17:40:57.417Z,97983.00
2023-03-29T17:43:32.697Z,97971.00
2023-03-29T17:46:07.836Z,97980.00
2023-03-29T17:48:42.705Z,97977.00
2023-03-29T17:51:19.704Z,97987.00
2023-03-29T17:53:56.620Z,97978.00
2023-03-29T17:56:31.856Z,97977.00
2023-03-29T17:59:07.372Z,97974.00
2023-03-29T18:01:42.368Z,97966.00
2023-03-29T18:04:19.076Z,97968.00
2023-03-29T18:06:54.934Z,97966.00
2023-03-29T18:09:30.895Z,97960.00
2023-03-29T18:12:06.804Z,97963.00
2023-03-29T18:14:41.702Z,97965.00
2023-03-29T18:17:17.355Z,97963.00
2023-03-29T18:19:52.192Z,97962.00
2023-03-29T18:22:27.024Z,97959.00
2023-03-29T18:25:03.119Z,97972.00
2023-03-29T18:27:39.767Z,97964.00
2023-03-29T18:30:16.599Z,97963.00
2023-03-29T18:32:53.095Z,97960.00
2023-03-29T18:35:28.110Z,97950.00
2023-03-29T18:38:03.368Z,97952.00
2023-03-29T18:40:39.095Z,97959.00
2023-03-29T18:43:14.313Z,97963.00
2023-03-29T18:45:50.117Z,97961.00
2023-03-29T18:48:25.387Z,97963.00
2023-03-29T18:51:00.272Z,97952.00
2023-03-29T18:53:36.765Z,97954.00
2023-03-29T18:56:11.682Z,97955.00
2023-03-29T18:58:47.227Z,97946.00
2023-03-29T19:01:22.122Z,97954.00
2023-03-29T19:03:57.053Z,97950.00
2023-03-29T19:06:31.997Z,97955.00
2023-03-29T19:09:07.407Z,97958.00
2023-03-29T19:11:42.319Z,97970.00
2023-03-29T19:14:23.296Z,97958.00
2023-03-29T19:16:58.240Z,97969.00
2023-03-29T19:19:33.166Z,97959.00
2023-03-29T19:22:08.026Z,97956.00
2023-03-29T19:24:43.024Z,97946.00
2023-03-29T19:27:18.538Z,97949.00
2023-03-29T19:29:53.433Z,97958.00
2023-03-29T19:32:28.398Z,97961.00
2023-03-29T19:35:04.268Z,97960.00
2023-03-29T19:37:39.413Z,97963.00
2023-03-29T19:40:14.429Z,97959.00
2023-03-29T19:42:49.348Z,97950.00
2023-03-29T19:45:24.637Z,97946.00
2023-03-29T19:48:03.142Z,97938.00
2023-03-29T19:50:44.074Z,97929.00
2023-03-29T19:53:18.948Z,97924.00
2023-03-29T19:55:54.513Z,97924.00
2023-03-29T19:58:29.928Z,97921.00
2023-03-29T20:01:05.010Z,97935.00
2023-03-29T20:03:42.257Z,97914.00
2023-03-29T20:06:20.415Z,97921.00
2023-03-29T20:08:55.956Z,97907.00
2023-03-29T20:11:31.101Z,97900.00
2023-03-29T20:14:05.982Z,97900.00
2023-03-29T20:16:42.508Z,97894.00
2023-03-29T20:19:17.794Z,97892.00
2023-03-29T20:21:57.418Z,97885.00
2023-03-29T20:24:32.593Z,97882.00
2023-03-29T20:27:07.592Z,97878.00
2023-03-29T20:29:42.746Z,97877.00
2023-03-29T20:32:17.736Z,97878.00
2023-03-29T20:34:52.602Z,97876.00
2023-03-29T20:37:28.413Z,97883.00
2023-03-29T20:40:05.345Z,97868.00
2023-03-29T20:42:40.272Z,97867.00
2023-03-29T20:45:18.581Z,97870.00
2023-03-29T20:47:57.667Z,97861.00
2023-03-29T20:50:32.715Z,97864.00
2023-03-29T20:53:08.183Z,97856.00
2023-03-29T20:55:43.090Z,97851.00
2023-03-29T20:58:18.013Z,97851.00
2023-03-29T21:00:52.878Z,97851.00
2023-03-29T21:03:27.789Z,97843.00
2023-03-29T21:06:03.503Z,97839.00
2023-03-29T21:08:38.643Z,97847.00
2023-03-29T21:11:15.836Z,97833.00
2023-03-29T21:13:52.810Z,97833.00
2023-03-29T21:16:28.991Z,97824.00
2023-03-29T21:19:03.978Z,97828.00
2023-03-29T21:21:41.327Z,97829.00
2023-03-29T21:24:16.406Z,97828.00
2023-03-29T21:26:51.416Z,97817.00
2023-03-29T21:29:26.459Z,97818.00
2023-03-29T21:32:01.363Z,97808.00
2023-03-29T21:34:36.595Z,97805.00
2023-03-29T21:37:13.336Z,97806.00
2023-03-29T21:39:49.554Z,97794.00
2023-03-29T21:42:24.417Z,97794.00
2023-03-29T21:44:59.258Z,97795.00
2023-03-29T21:47:34.303Z,97784.00
2023-03-29T21:50:10.681Z,97790.00
2023-03-29T21:52:45.757Z,97780.00
2023-03-29T21:55:20.663Z,97777.00
2023-03-29T21:57:55.616Z,97774.00
2023-03-29T22:00:31.190Z,97776.00
2023-03-29T22:03:06.215Z,97780.00
2023-03-29T22:05:41.895Z,97773.00
2023-03-29T22:08:16.782Z,97777.00
2023-03-29T22:10:56.904Z,97758.00
2023-03-29T22:13:31.876Z,97769.00
2023-03-29T22:16:08.032Z,97755.00
2023-03-29T22:18:42.970Z,97770.00
2023-03-29T22:21:26.798Z,97767.00
2023-03-29T22:24:02.291Z,97766.00
2023-03-29T22:26:37.191Z,97752.00
2023-03-29T22:29:12.363Z,97759.00
2023-03-29T22:31:47.304Z,97767.00
2023-03-29T22:34:22.243Z,97760.00
2023-03-29T22:36:57.109Z,97765.00
2023-03-29T22:39:35.733Z,97760.00
2023-03-29T22:42:10.625Z,97765.00
2023-03-29T22:44:45.595Z,97762.00
2023-03-29T22:47:20.503Z,97758.00
2023-03-29T22:49:56.356Z,97758.00
2023-03-29T22:52:31.425Z,97762.00
2023-03-29T22:55:06.904Z,97759.00
2023-03-29T22:57:42.048Z,97755.00
2023-03-29T23:00:17.739Z,97773.00
2023-03-29T23:02:52.859Z,97759.00
2023-03-29T23:05:27.744Z,97752.00
2023-03-29T23:08:02.772Z,97765.00
2023-03-29T23:10:37.618Z,97751.00
2023-03-29T23:13:13.576Z,97743.00
2023-03-29T23:15:49.589Z,97732.00
2023-03-29T23:18:26.447Z,97742.00
2023-03-29T23:21:01.779Z,97761.00
2023-03-29T23:23:37.028Z,97732.00
2023-03-29T23:26:12.052Z,97741.00
2023-03-29T23:28:47.097Z,97750.00
2023-03-29T23:31:23.781Z,97736.00
2023-03-29T23:33:59.037Z,97737.00
2023-03-29T23:36:33.904Z,97739.00
2023-03-29T23:39:09.877Z,97747.00
2023-03-29T23:41:44.785Z,97744.00
2023-03-29T23:44:19.682Z,97749.00
2023-03-29T23:46:54.585Z,97775.00
2023-03-29T23:49:30.051Z,97760.00
2023-03-29T23:52:05.326Z,97771.00
2023-03-29T23:54:40.183Z,97755.00
2023-03-29T23:57:15.332Z,97748.00
2023-03-29T23:59:52.629Z,97752.00
